METAR and TAF’s


Available data for KLBB from the past 2 hours
LUBBOCK, TX
Metar
KLBB 220653Z 12003KT 10SM SCT060 BKN070 21/19 A3015 RMK AO2 SLP158 T02110189

06:53 UTC

Wind: 120° 3kt

Visibility: 10 SM

Sky: SCT 6000 ft

Temp: 21 deg C / 69.8 deg F

Dewpoint: 19 deg C / 66.2 deg F

Pressure: 30.15 inHg

TAF
KLBB 220541Z 2206/2306 20007KT P6SM FEW250 FM221900 29009KT P6SM SCT060 SCT250
Available data for KCVN from the past 2 hours
CLOVIS MUNI, NM
Metar
KCVN 220656Z AUTO 21005KT 10SM CLR 18/17 A3020 RMK AO2 SLP189 T01830172 402780178

06:56 UTC

Wind: 210° 5kt

Visibility: 10 SM

Sky:

Temp: 18 deg C / 64.4 deg F

Dewpoint: 17 deg C / 62.6 deg F

Pressure: 30.2 inHg